createdAt,value
2022-11-30T00:02:30.580Z,76.21
2022-11-30T00:05:33.257Z,76.30
2022-11-30T00:08:35.734Z,76.37
2022-11-30T00:11:38.429Z,76.44
2022-11-30T00:14:40.608Z,76.44
2022-11-30T00:17:44.616Z,76.44
2022-11-30T00:20:46.864Z,76.43
2022-11-30T00:23:51.090Z,76.50
2022-11-30T00:26:53.540Z,76.63
2022-11-30T00:29:56.392Z,76.59
2022-11-30T00:32:58.730Z,76.62
2022-11-30T00:36:07.754Z,76.64
2022-11-30T00:39:10.000Z,76.65
2022-11-30T00:42:13.025Z,76.66
2022-11-30T00:45:15.314Z,76.67
2022-11-30T00:48:17.973Z,76.64
2022-11-30T00:51:20.493Z,76.55
2022-11-30T00:54:22.986Z,76.59
2022-11-30T00:57:25.267Z,76.61
2022-11-30T01:00:28.982Z,76.53
2022-11-30T01:03:31.287Z,76.43
2022-11-30T01:06:34.099Z,76.49
2022-11-30T01:09:36.447Z,76.50
2022-11-30T01:12:39.020Z,76.59
2022-11-30T01:15:44.375Z,76.56
2022-11-30T01:18:47.783Z,76.71
2022-11-30T01:21:50.017Z,76.42
2022-11-30T01:24:52.547Z,76.35
2022-11-30T01:27:54.922Z,76.42
2022-11-30T01:31:02.914Z,76.37
2022-11-30T01:34:05.286Z,76.38
2022-11-30T01:37:07.818Z,76.49
2022-11-30T01:40:11.712Z,76.59
2022-11-30T01:43:19.984Z,76.64
2022-11-30T01:46:25.734Z,76.67
2022-11-30T01:50:01.534Z,76.79
2022-11-30T01:53:05.468Z,76.96
2022-11-30T01:56:08.017Z,77.03
2022-11-30T01:59:11.226Z,77.09
2022-11-30T02:02:13.806Z,77.11
2022-11-30T02:05:17.886Z,77.04
2022-11-30T02:08:20.603Z,76.93
2022-11-30T02:11:42.716Z,76.86
2022-11-30T02:14:54.310Z,76.92
2022-11-30T02:18:12.747Z,76.85
2022-11-30T02:21:38.282Z,76.90
2022-11-30T02:24:57.125Z,76.74
2022-11-30T02:28:36.986Z,76.62
2022-11-30T02:31:55.721Z,76.59
2022-11-30T02:35:01.522Z,76.58
2022-11-30T02:38:05.237Z,76.64
2022-11-30T02:41:07.473Z,76.53
2022-11-30T02:44:12.010Z,76.53
2022-11-30T02:47:31.305Z,76.53
2022-11-30T02:50:39.876Z,76.44
2022-11-30T02:53:42.299Z,76.33
2022-11-30T02:56:44.828Z,76.21
2022-11-30T02:59:47.115Z,76.25
2022-11-30T03:02:49.968Z,76.00
2022-11-30T03:05:52.202Z,75.99
2022-11-30T03:08:54.714Z,75.93
2022-11-30T03:11:57.059Z,76.50
2022-11-30T03:14:59.533Z,75.88
2022-11-30T03:18:03.807Z,75.49
2022-11-30T03:21:11.490Z,75.35
2022-11-30T03:24:13.830Z,75.22
2022-11-30T03:27:16.522Z,75.30
2022-11-30T03:30:18.904Z,75.36
2022-11-30T03:33:21.410Z,75.20
2022-11-30T03:36:23.949Z,75.20
2022-11-30T03:39:26.506Z,75.10
2022-11-30T03:42:28.735Z,75.01
2022-11-30T03:45:31.267Z,74.96
2022-11-30T03:48:36.027Z,74.87
2022-11-30T03:51:38.559Z,74.77
2022-11-30T03:54:40.791Z,74.86
2022-11-30T03:57:43.297Z,74.92
2022-11-30T04:00:45.515Z,74.74
2022-11-30T04:03:48.602Z,74.69
2022-11-30T04:06:50.892Z,74.62
2022-11-30T04:09:53.426Z,74.37
2022-11-30T04:12:55.664Z,73.99
2022-11-30T04:15:58.530Z,73.83
2022-11-30T04:19:00.934Z,73.64
2022-11-30T04:22:03.528Z,73.57
2022-11-30T04:25:06.498Z,73.44
2022-11-30T04:28:10.024Z,73.38
2022-11-30T04:31:12.798Z,73.29
2022-11-30T04:34:15.351Z,73.21
2022-11-30T04:37:17.622Z,73.23
2022-11-30T04:40:20.307Z,73.01
2022-11-30T04:43:23.068Z,72.74
2022-11-30T04:46:25.572Z,72.51
2022-11-30T04:49:27.811Z,72.47
2022-11-30T04:52:30.424Z,72.31
2022-11-30T04:55:33.401Z,72.16
2022-11-30T04:58:36.797Z,71.96
2022-11-30T05:01:39.122Z,71.80
2022-11-30T05:04:41.739Z,71.60
2022-11-30T05:07:44.051Z,71.58
2022-11-30T05:10:53.273Z,71.49
2022-11-30T05:13:55.671Z,71.24
2022-11-30T05:16:58.228Z,71.08
2022-11-30T05:20:00.450Z,70.83
2022-11-30T05:23:03.016Z,70.70
2022-11-30T05:26:05.544Z,70.67
2022-11-30T05:29:08.020Z,70.34
2022-11-30T05:32:10.231Z,70.19
2022-11-30T05:35:12.878Z,69.96
2022-11-30T05:38:15.141Z,69.82
2022-11-30T05:41:17.746Z,69.61
2022-11-30T05:44:19.977Z,69.45
2022-11-30T05:47:22.559Z,69.16
2022-11-30T05:50:25.120Z,69.68
2022-11-30T05:53:27.606Z,69.40
2022-11-30T05:56:29.862Z,68.88
2022-11-30T05:59:32.794Z,68.96
2022-11-30T06:02:35.543Z,68.56
2022-11-30T06:05:38.135Z,68.38
2022-11-30T06:08:40.581Z,68.36
2022-11-30T06:11:43.083Z,68.52
2022-11-30T06:14:45.621Z,68.55
2022-11-30T06:17:48.311Z,68.25
2022-11-30T06:20:50.599Z,68.30
2022-11-30T06:23:53.199Z,68.33
2022-11-30T06:26:55.469Z,68.05
2022-11-30T06:29:58.012Z,67.80
2022-11-30T06:33:00.265Z,67.96
2022-11-30T06:36:03.699Z,67.46
2022-11-30T06:39:05.927Z,67.48
2022-11-30T06:42:08.446Z,67.18
2022-11-30T06:45:10.949Z,67.11
2022-11-30T06:48:14.298Z,66.78
2022-11-30T06:51:17.096Z,66.70
2022-11-30T06:54:19.616Z,66.82
2022-11-30T06:57:26.848Z,66.66
2022-11-30T07:00:29.407Z,66.42
2022-11-30T07:03:31.744Z,66.15
2022-11-30T07:06:34.272Z,65.98
2022-11-30T07:09:36.943Z,65.96
2022-11-30T07:12:39.470Z,65.88
2022-11-30T07:15:42.459Z,65.88
2022-11-30T07:18:44.950Z,66.12
2022-11-30T07:21:47.204Z,65.98
2022-11-30T07:25:08.125Z,65.40
2022-11-30T07:28:10.328Z,65.40
2022-11-30T07:31:20.209Z,65.10
2022-11-30T07:34:22.981Z,64.87
2022-11-30T07:37:25.559Z,64.84
2022-11-30T07:40:27.816Z,64.76
2022-11-30T07:43:30.498Z,64.72
2022-11-30T07:46:35.847Z,64.50
2022-11-30T07:49:39.830Z,64.55
2022-11-30T07:52:42.503Z,64.38
2022-11-30T07:55:45.386Z,63.95
2022-11-30T07:58:49.456Z,64.20
2022-11-30T08:01:52.198Z,64.55
2022-11-30T08:04:58.458Z,63.95
2022-11-30T08:08:00.885Z,63.22
2022-11-30T08:11:07.926Z,63.24
2022-11-30T08:14:12.601Z,62.64
2022-11-30T08:17:15.226Z,62.93
2022-11-30T08:20:17.704Z,62.79
2022-11-30T08:23:20.266Z,62.40
2022-11-30T08:26:25.424Z,62.45
2022-11-30T08:29:28.136Z,63.03
2022-11-30T08:32:31.407Z,62.64
2022-11-30T08:35:34.074Z,62.17
2022-11-30T08:38:37.441Z,61.89
2022-11-30T08:41:40.240Z,61.79
2022-11-30T08:44:42.492Z,61.71
2022-11-30T08:47:45.126Z,61.70
2022-11-30T08:50:47.641Z,62.15
2022-11-30T08:53:51.115Z,61.41
2022-11-30T08:56:53.388Z,61.21
2022-11-30T08:59:55.911Z,61.63
2022-11-30T09:02:58.373Z,61.70
2022-11-30T09:06:09.599Z,61.58
2022-11-30T09:09:11.953Z,61.35
2022-11-30T09:12:14.687Z,60.90
2022-11-30T09:15:17.399Z,60.78
2022-11-30T09:18:19.940Z,60.50
2022-11-30T09:21:24.955Z,60.54
2022-11-30T09:24:27.639Z,60.27
2022-11-30T09:27:32.603Z,60.01
2022-11-30T09:30:38.191Z,59.90
2022-11-30T09:33:41.043Z,59.88
2022-11-30T09:36:43.524Z,59.00
2022-11-30T09:39:45.789Z,58.74
2022-11-30T09:43:02.672Z,58.36
2022-11-30T09:46:07.023Z,58.08
2022-11-30T09:49:23.858Z,58.16
2022-11-30T09:52:35.846Z,57.95
2022-11-30T09:55:42.119Z,58.29
2022-11-30T09:59:12.548Z,57.84
2022-11-30T10:02:18.082Z,58.32
2022-11-30T10:05:25.113Z,57.90
2022-11-30T10:08:56.641Z,58.17
2022-11-30T10:12:09.097Z,57.90
2022-11-30T10:15:26.694Z,57.62
2022-11-30T10:18:47.688Z,57.73
2022-11-30T10:22:14.033Z,57.59
2022-11-30T10:25:23.382Z,57.67
2022-11-30T10:28:49.234Z,57.42
2022-11-30T10:31:57.303Z,57.42
2022-11-30T10:35:13.311Z,57.79
2022-11-30T10:38:21.747Z,57.21
2022-11-30T10:41:30.564Z,57.27
2022-11-30T10:44:40.724Z,57.34
2022-11-30T10:47:51.225Z,57.01
2022-11-30T10:50:54.352Z,56.76
2022-11-30T10:53:58.543Z,56.65
2022-11-30T10:57:04.022Z,56.34
2022-11-30T11:00:07.537Z,55.91
2022-11-30T11:03:26.723Z,55.50
2022-11-30T11:06:29.210Z,55.61
2022-11-30T11:09:45.835Z,55.04
2022-11-30T11:12:53.844Z,54.80
2022-11-30T11:15:59.636Z,54.71
2022-11-30T11:19:02.060Z,55.03
2022-11-30T11:22:16.173Z,55.23
2022-11-30T11:25:22.758Z,55.06
2022-11-30T11:28:26.025Z,55.02
2022-11-30T11:31:41.059Z,55.34
2022-11-30T11:34:49.420Z,55.45
2022-11-30T11:37:53.484Z,55.06
2022-11-30T11:41:00.122Z,55.06
2022-11-30T11:44:06.430Z,54.98
2022-11-30T11:47:25.380Z,54.96
2022-11-30T11:53:58.943Z,55.21
2022-11-30T11:57:02.222Z,55.20
2022-11-30T12:00:16.430Z,55.26
2022-11-30T12:03:37.359Z,55.01
2022-11-30T12:06:42.324Z,55.08
2022-11-30T12:09:59.662Z,54.94
2022-11-30T12:13:01.978Z,54.86
2022-11-30T12:16:17.024Z,55.12
2022-11-30T12:19:32.682Z,55.49
2022-11-30T12:22:54.199Z,54.96
2022-11-30T12:26:18.312Z,55.03
2022-11-30T12:29:39.197Z,55.32
2022-11-30T12:32:59.543Z,55.67
2022-11-30T12:36:14.703Z,55.99
2022-11-30T12:39:41.188Z,55.96
2022-11-30T12:42:58.683Z,55.54
2022-11-30T12:46:17.494Z,55.41
2022-11-30T12:49:32.231Z,55.18
2022-11-30T12:52:34.570Z,54.93
2022-11-30T12:55:45.815Z,54.76
2022-11-30T12:58:58.495Z,54.82
2022-11-30T13:02:46.226Z,54.33
2022-11-30T13:05:54.992Z,53.47
2022-11-30T13:09:13.780Z,53.70
2022-11-30T13:12:37.694Z,53.46
2022-11-30T13:15:40.638Z,53.64
2022-11-30T13:18:43.155Z,54.19
2022-11-30T13:21:54.150Z,53.94
2022-11-30T13:25:02.837Z,54.00
2022-11-30T13:28:31.446Z,54.00
2022-11-30T13:31:52.626Z,54.43
2022-11-30T13:35:30.099Z,54.03
2022-11-30T13:38:37.785Z,53.36
2022-11-30T13:41:43.753Z,53.53
2022-11-30T13:44:46.642Z,53.09
2022-11-30T13:47:51.583Z,52.85
2022-11-30T13:50:54.765Z,53.18
2022-11-30T13:54:35.928Z,53.09
2022-11-30T13:57:38.192Z,52.91
2022-11-30T14:00:40.781Z,52.90
2022-11-30T14:03:43.791Z,52.83
2022-11-30T14:06:51.500Z,52.86
2022-11-30T14:09:56.208Z,53.08
2022-11-30T14:13:01.174Z,53.29
2022-11-30T14:16:05.655Z,53.08
2022-11-30T14:19:10.618Z,53.33
2022-11-30T14:22:15.040Z,53.47
2022-11-30T14:25:21.787Z,53.28
2022-11-30T14:28:46.576Z,53.35
2022-11-30T14:31:55.833Z,53.43
2022-11-30T14:35:07.918Z,53.36
2022-11-30T14:38:30.973Z,53.38
2022-11-30T14:41:33.658Z,53.43
2022-11-30T14:44:39.510Z,53.60
2022-11-30T14:47:46.651Z,53.49
2022-11-30T14:50:53.252Z,53.48
2022-11-30T14:54:08.397Z,53.52
2022-11-30T14:57:34.909Z,53.39
2022-11-30T15:00:41.126Z,53.46
2022-11-30T15:03:46.000Z,53.70
2022-11-30T15:06:48.633Z,53.85
2022-11-30T15:09:57.531Z,54.22
2022-11-30T15:13:02.318Z,54.52
2022-11-30T15:16:10.121Z,54.17
2022-11-30T15:19:31.040Z,53.73
2022-11-30T15:22:34.702Z,53.81
2022-11-30T15:25:40.007Z,53.67
2022-11-30T15:28:45.291Z,53.25
2022-11-30T15:31:51.779Z,53.64
2022-11-30T15:35:00.794Z,53.71
2022-11-30T15:38:08.675Z,53.36
2022-11-30T15:41:23.012Z,53.53
2022-11-30T15:44:38.944Z,53.29
2022-11-30T15:47:41.431Z,53.28
2022-11-30T15:50:44.113Z,53.45
2022-11-30T15:53:51.481Z,53.68
2022-11-30T15:56:57.765Z,53.55
2022-11-30T16:00:06.402Z,53.78
2022-11-30T16:03:22.005Z,53.81
2022-11-30T16:06:27.719Z,53.89
2022-11-30T16:09:33.403Z,54.51
2022-11-30T16:12:35.684Z,54.83
2022-11-30T16:15:39.179Z,54.62
2022-11-30T16:18:41.469Z,54.55
2022-11-30T16:21:44.323Z,54.46
2022-11-30T16:24:46.643Z,55.03
2022-11-30T16:27:50.272Z,55.34
2022-11-30T16:30:56.230Z,55.78
2022-11-30T16:33:58.858Z,56.04
2022-11-30T16:37:01.320Z,56.28
2022-11-30T16:40:04.657Z,56.88
2022-11-30T16:43:07.155Z,57.26
2022-11-30T16:46:12.040Z,57.44
2022-11-30T16:49:15.768Z,57.61
2022-11-30T16:52:18.452Z,57.90
2022-11-30T16:55:22.766Z,58.32
2022-11-30T16:58:25.310Z,58.20
2022-11-30T17:01:35.493Z,58.32
2022-11-30T17:04:40.430Z,58.40
2022-11-30T17:07:43.977Z,58.71
2022-11-30T17:10:50.788Z,58.75
2022-11-30T17:13:53.037Z,58.87
2022-11-30T17:16:55.887Z,59.24
2022-11-30T17:19:58.228Z,59.07
2022-11-30T17:23:00.792Z,59.26
2022-11-30T17:26:03.624Z,59.57
2022-11-30T17:29:06.766Z,59.70
2022-11-30T17:32:09.274Z,59.93
2022-11-30T17:35:12.422Z,59.95
2022-11-30T17:38:14.747Z,60.00
2022-11-30T17:41:19.928Z,60.01
2022-11-30T17:44:22.525Z,60.03
2022-11-30T17:47:25.640Z,60.03
2022-11-30T17:50:27.962Z,60.15
2022-11-30T17:53:31.065Z,60.19
2022-11-30T17:56:43.964Z,60.28
2022-11-30T17:59:46.488Z,60.34
2022-11-30T18:02:52.696Z,60.72
2022-11-30T18:06:00.326Z,60.76
2022-11-30T18:09:02.611Z,60.90
2022-11-30T18:12:05.622Z,60.92
2022-11-30T18:15:10.844Z,60.88
2022-11-30T18:18:13.461Z,61.16
2022-11-30T18:21:21.211Z,61.26
2022-11-30T18:24:25.604Z,61.16
2022-11-30T18:27:28.275Z,61.26
2022-11-30T18:30:30.906Z,61.16
2022-11-30T18:33:34.040Z,61.10
2022-11-30T18:36:36.677Z,61.29
2022-11-30T18:39:40.205Z,61.27
2022-11-30T18:42:42.934Z,61.29
2022-11-30T18:45:45.288Z,61.36
2022-11-30T18:48:52.700Z,61.49
2022-11-30T18:51:55.100Z,61.37
2022-11-30T18:54:57.866Z,61.43
2022-11-30T18:58:01.222Z,61.40
2022-11-30T19:01:12.730Z,61.35
2022-11-30T19:04:15.020Z,61.34
2022-11-30T19:07:17.560Z,61.44
2022-11-30T19:10:19.863Z,61.58
2022-11-30T19:13:22.380Z,61.71
2022-11-30T19:16:26.349Z,61.79
2022-11-30T19:19:28.940Z,61.82
2022-11-30T19:22:31.270Z,61.93
2022-11-30T19:25:33.900Z,62.06
2022-11-30T19:28:39.682Z,62.10
2022-11-30T19:31:42.358Z,62.08
2022-11-30T19:34:47.281Z,62.10
2022-11-30T19:37:52.362Z,62.03
2022-11-30T19:40:54.719Z,62.03
2022-11-30T19:44:03.796Z,62.03
2022-11-30T19:47:07.049Z,62.48
2022-11-30T19:50:09.887Z,62.42
2022-11-30T19:53:12.242Z,62.26
2022-11-30T19:56:17.332Z,62.19
2022-11-30T19:59:19.672Z,62.10
2022-11-30T20:02:22.560Z,62.24
2022-11-30T20:05:25.214Z,62.12
2022-11-30T20:08:27.555Z,62.31
2022-11-30T20:11:30.242Z,61.95
2022-11-30T20:14:33.748Z,62.11
2022-11-30T20:17:38.668Z,61.87
2022-11-30T20:20:41.055Z,62.06
2022-11-30T20:23:45.892Z,61.97
2022-11-30T20:26:48.261Z,62.04
2022-11-30T20:29:51.781Z,62.13
2022-11-30T20:32:54.178Z,62.29
2022-11-30T20:35:57.710Z,62.23
2022-11-30T20:39:02.836Z,62.31
2022-11-30T20:42:05.483Z,62.33
2022-11-30T20:45:08.003Z,62.40
2022-11-30T20:48:10.564Z,62.43
2022-11-30T20:51:30.641Z,62.45
2022-11-30T20:54:33.703Z,62.55
2022-11-30T20:57:35.939Z,62.68
2022-11-30T21:00:38.646Z,62.72
2022-11-30T21:03:41.737Z,62.80
2022-11-30T21:06:45.771Z,62.86
2022-11-30T21:09:48.186Z,62.90
2022-11-30T21:12:52.366Z,62.76
2022-11-30T21:15:54.609Z,62.75
2022-11-30T21:18:59.289Z,62.79
2022-11-30T21:22:01.706Z,62.92
2022-11-30T21:25:04.476Z,62.89
2022-11-30T21:28:07.509Z,62.96
2022-11-30T21:31:10.473Z,63.00
2022-11-30T21:34:13.231Z,63.09
2022-11-30T21:37:15.867Z,63.09
2022-11-30T21:40:18.242Z,63.14
2022-11-30T21:43:20.952Z,63.06
2022-11-30T21:46:23.522Z,62.94
2022-11-30T21:49:26.667Z,62.71
2022-11-30T21:52:28.979Z,62.60
2022-11-30T21:55:31.522Z,62.62
2022-11-30T21:58:34.428Z,62.65
2022-11-30T22:01:39.381Z,62.55
2022-11-30T22:04:42.189Z,62.34
2022-11-30T22:07:45.905Z,62.35
2022-11-30T22:10:48.354Z,62.32
2022-11-30T22:13:54.755Z,62.54
2022-11-30T22:16:59.224Z,62.54
2022-11-30T22:20:01.491Z,62.68
2022-11-30T22:23:04.083Z,62.20
2022-11-30T22:26:17.094Z,62.36
2022-11-30T22:29:22.505Z,62.63
2022-11-30T22:32:24.788Z,62.66
2022-11-30T22:35:27.384Z,62.58
2022-11-30T22:38:30.460Z,62.60
2022-11-30T22:41:33.489Z,62.71
2022-11-30T22:44:35.680Z,62.08
2022-11-30T22:47:38.190Z,62.00
2022-11-30T22:50:40.495Z,61.92
2022-11-30T22:53:43.818Z,61.86
2022-11-30T22:56:46.678Z,61.37
2022-11-30T22:59:49.997Z,61.27
2022-11-30T23:02:52.500Z,60.79
2022-11-30T23:05:55.279Z,60.66
2022-11-30T23:08:59.246Z,60.24
2022-11-30T23:12:01.787Z,60.17
2022-11-30T23:15:04.312Z,60.10
2022-11-30T23:18:06.903Z,60.17
2022-11-30T23:21:12.764Z,60.38
2022-11-30T23:24:20.211Z,60.31
2022-11-30T23:27:22.468Z,60.38
2022-11-30T23:30:25.125Z,60.41
2022-11-30T23:33:27.401Z,60.41
2022-11-30T23:36:30.107Z,60.19
2022-11-30T23:39:32.354Z,60.23
2022-11-30T23:42:34.884Z,60.50
2022-11-30T23:45:37.195Z,60.27
2022-11-30T23:48:40.105Z,60.39
2022-11-30T23:51:43.102Z,60.38
2022-11-30T23:54:45.672Z,60.32
2022-11-30T23:57:48.531Z,60.38
